createdAt,value
2017-09-27T00:01:11.858Z,92.80
2017-09-27T00:04:14.142Z,92.90
2017-09-27T00:07:16.166Z,93.10
2017-09-27T00:10:18.490Z,93.20
2017-09-27T00:13:20.447Z,93.30
2017-09-27T00:16:22.820Z,93.40
2017-09-27T00:19:24.855Z,93.40
2017-09-27T00:22:27.201Z,93.50
2017-09-27T00:25:29.137Z,93.50
2017-09-27T00:28:32.247Z,93.60
2017-09-27T00:31:34.192Z,93.60
2017-09-27T00:34:36.616Z,93.70
2017-09-27T00:37:39.328Z,93.60
2017-09-27T00:40:41.669Z,93.70
2017-09-27T00:43:43.607Z,93.70
2017-09-27T00:46:45.984Z,93.80
2017-09-27T00:49:47.920Z,93.80
2017-09-27T00:52:50.270Z,93.90
2017-09-27T00:55:52.212Z,94.00
2017-09-27T00:58:54.535Z,94.10
2017-09-27T01:01:56.535Z,94.20
2017-09-27T01:04:58.896Z,94.20
2017-09-27T01:08:00.912Z,94.40
2017-09-27T01:11:05.608Z,94.50
2017-09-27T01:14:07.595Z,94.50
2017-09-27T01:17:09.963Z,94.50
2017-09-27T01:20:11.912Z,94.60
2017-09-27T01:23:14.271Z,94.60
2017-09-27T01:26:16.207Z,94.60
2017-09-27T01:29:18.573Z,94.60
2017-09-27T01:32:20.516Z,94.60
2017-09-27T01:35:22.870Z,94.60
2017-09-27T01:38:24.801Z,94.60
2017-09-27T01:41:27.902Z,94.70
2017-09-27T01:44:29.830Z,94.70
2017-09-27T01:47:32.308Z,94.70
2017-09-27T01:50:34.245Z,94.70
2017-09-27T01:53:36.607Z,94.80
2017-09-27T01:56:38.543Z,94.80
2017-09-27T01:59:40.908Z,94.80
2017-09-27T02:02:42.837Z,94.80
2017-09-27T02:05:45.948Z,94.90
2017-09-27T02:08:47.892Z,94.90
2017-09-27T02:11:50.244Z,94.80
2017-09-27T02:14:52.213Z,94.80
2017-09-27T02:17:54.654Z,94.80
2017-09-27T02:20:56.606Z,94.80
2017-09-27T02:23:58.999Z,94.80
2017-09-27T02:27:00.935Z,94.70
2017-09-27T02:30:03.218Z,94.70
2017-09-27T02:33:05.935Z,94.60
2017-09-27T02:36:09.106Z,94.60
2017-09-27T02:39:11.068Z,94.60
2017-09-27T02:42:13.352Z,94.60
2017-09-27T02:45:15.359Z,94.50
2017-09-27T02:48:17.711Z,94.50
2017-09-27T02:51:19.665Z,94.50
2017-09-27T02:54:22.031Z,94.50
2017-09-27T02:57:24.079Z,94.50
2017-09-27T03:00:26.423Z,94.40
2017-09-27T03:03:28.363Z,94.50
2017-09-27T03:06:31.265Z,94.50
2017-09-27T03:09:33.219Z,94.50
2017-09-27T03:12:35.554Z,94.50
2017-09-27T03:15:37.498Z,94.50
2017-09-27T03:18:40.889Z,94.80
2017-09-27T03:21:42.824Z,94.50
2017-09-27T03:24:45.187Z,94.50
2017-09-27T03:27:47.117Z,94.50
2017-09-27T03:30:49.496Z,94.50
2017-09-27T03:33:51.447Z,94.50
2017-09-27T03:36:53.804Z,94.50
2017-09-27T03:39:55.850Z,94.50
2017-09-27T03:42:58.218Z,94.60
2017-09-27T03:46:00.165Z,94.50
2017-09-27T03:49:02.533Z,94.50
2017-09-27T03:52:04.574Z,94.50
2017-09-27T03:55:06.935Z,94.50
2017-09-27T03:58:08.883Z,94.50
2017-09-27T04:01:11.240Z,94.50
2017-09-27T04:04:13.172Z,94.50
2017-09-27T04:07:15.539Z,94.40
2017-09-27T04:10:17.495Z,94.40
2017-09-27T04:13:19.834Z,94.40
2017-09-27T04:16:21.889Z,94.40
2017-09-27T04:19:24.244Z,94.50
2017-09-27T04:22:26.397Z,94.50
2017-09-27T04:25:28.754Z,94.50
2017-09-27T04:28:30.690Z,94.50
2017-09-27T04:31:33.073Z,94.50
2017-09-27T04:34:35.108Z,94.60
2017-09-27T04:37:37.459Z,94.60
2017-09-27T04:40:39.395Z,94.60
2017-09-27T04:43:42.597Z,94.60
2017-09-27T04:46:44.556Z,94.60
2017-09-27T04:49:46.914Z,94.60
2017-09-27T04:52:48.841Z,94.60
2017-09-27T04:55:51.248Z,94.60
2017-09-27T04:58:53.174Z,94.50
2017-09-27T05:01:55.520Z,94.60
2017-09-27T05:04:57.461Z,94.60
2017-09-27T05:07:59.826Z,94.60
2017-09-27T05:11:01.877Z,94.60
2017-09-27T05:14:04.234Z,94.60
2017-09-27T05:17:06.180Z,94.60
2017-09-27T05:20:08.531Z,94.60
2017-09-27T05:23:10.470Z,94.60
2017-09-27T05:26:12.831Z,94.60
2017-09-27T05:29:14.771Z,94.60
2017-09-27T05:32:17.088Z,94.50
2017-09-27T05:35:19.088Z,94.50
2017-09-27T05:38:21.447Z,94.40
2017-09-27T05:41:23.391Z,94.40
2017-09-27T05:44:25.740Z,94.40
2017-09-27T05:47:27.700Z,94.50
2017-09-27T05:50:30.005Z,94.40
2017-09-27T05:53:32.008Z,94.50
2017-09-27T05:56:34.349Z,94.50
2017-09-27T05:59:37.058Z,94.40
2017-09-27T06:02:39.389Z,94.40
2017-09-27T06:05:41.314Z,94.40
2017-09-27T06:08:44.411Z,94.30
2017-09-27T06:11:46.447Z,94.30
2017-09-27T06:14:48.814Z,94.20
2017-09-27T06:17:50.747Z,94.20
2017-09-27T06:20:53.227Z,94.00
2017-09-27T06:23:55.214Z,93.90
2017-09-27T06:26:57.541Z,94.00
2017-09-27T06:29:59.470Z,93.70
2017-09-27T06:33:01.829Z,93.60
2017-09-27T06:36:04.718Z,93.40
2017-09-27T06:39:07.077Z,93.50
2017-09-27T06:42:09.135Z,93.60
2017-09-27T06:45:11.485Z,93.60
2017-09-27T06:48:13.518Z,93.70
2017-09-27T06:51:15.878Z,93.60
2017-09-27T06:54:17.823Z,93.60
2017-09-27T06:57:20.176Z,93.70
2017-09-27T07:00:22.125Z,93.70
2017-09-27T07:03:24.491Z,93.70
2017-09-27T07:06:26.588Z,93.60
2017-09-27T07:09:28.945Z,93.50
2017-09-27T07:12:30.885Z,93.30
2017-09-27T07:15:34.017Z,93.50
2017-09-27T07:18:35.976Z,93.20
2017-09-27T07:21:38.337Z,93.10
2017-09-27T07:24:40.378Z,92.60
2017-09-27T07:27:42.732Z,92.50
2017-09-27T07:30:44.666Z,92.50
2017-09-27T07:33:47.756Z,92.30
2017-09-27T07:36:49.708Z,92.30
2017-09-27T07:39:52.080Z,92.20
2017-09-27T07:42:54.024Z,92.00
2017-09-27T07:45:56.373Z,92.20
2017-09-27T07:48:58.309Z,91.90
2017-09-27T07:52:00.654Z,92.00
2017-09-27T07:55:03.467Z,92.30
2017-09-27T07:58:05.905Z,92.30
2017-09-27T08:01:07.831Z,92.40
2017-09-27T08:04:10.937Z,92.20
2017-09-27T08:07:12.876Z,92.20
2017-09-27T08:10:15.184Z,91.80
2017-09-27T08:13:17.276Z,91.90
2017-09-27T08:16:19.638Z,91.90
2017-09-27T08:19:21.814Z,92.00
2017-09-27T08:22:24.845Z,92.00
2017-09-27T08:25:26.826Z,92.10
2017-09-27T08:28:29.181Z,92.10
2017-09-27T08:31:31.230Z,92.00
2017-09-27T08:34:33.575Z,91.70
2017-09-27T08:37:35.518Z,91.70
2017-09-27T08:40:37.892Z,91.60
2017-09-27T08:43:39.820Z,91.60
2017-09-27T08:46:42.294Z,91.50
2017-09-27T08:49:44.338Z,91.30
2017-09-27T08:52:46.707Z,90.90
2017-09-27T08:55:48.750Z,90.80
2017-09-27T08:58:51.106Z,90.90
2017-09-27T09:01:53.058Z,91.00
2017-09-27T09:04:55.413Z,91.20
2017-09-27T09:07:57.363Z,91.10
2017-09-27T09:10:59.711Z,90.80
2017-09-27T09:14:01.672Z,90.70
2017-09-27T09:17:04.023Z,90.60
2017-09-27T09:20:05.967Z,90.80
2017-09-27T09:23:08.332Z,90.90
2017-09-27T09:26:10.275Z,91.00
2017-09-27T09:29:12.632Z,90.70
2017-09-27T09:32:14.569Z,90.60
2017-09-27T09:35:16.631Z,90.70
2017-09-27T09:38:18.592Z,90.60
2017-09-27T09:41:20.740Z,90.80
2017-09-27T09:44:22.717Z,90.90
2017-09-27T09:47:24.853Z,90.90
2017-09-27T09:50:26.797Z,90.90
2017-09-27T09:53:28.844Z,91.00
2017-09-27T09:56:30.792Z,90.50
2017-09-27T09:59:32.944Z,90.30
2017-09-27T10:02:34.985Z,90.80
2017-09-27T10:05:37.349Z,90.80
2017-09-27T10:08:39.287Z,90.90
2017-09-27T10:11:41.347Z,90.90
2017-09-27T10:14:43.291Z,91.00
2017-09-27T10:17:45.653Z,91.00
2017-09-27T10:20:47.687Z,90.90
2017-09-27T10:23:50.057Z,90.80
2017-09-27T10:26:51.991Z,90.90
2017-09-27T10:29:54.350Z,90.50
2017-09-27T10:32:56.293Z,90.50
2017-09-27T10:35:58.350Z,90.60
2017-09-27T10:39:00.291Z,90.80
2017-09-27T10:42:02.457Z,91.00
2017-09-27T10:45:04.398Z,90.90
2017-09-27T10:48:06.568Z,90.30
2017-09-27T10:51:08.554Z,89.50
2017-09-27T10:54:10.654Z,88.90
2017-09-27T10:57:12.610Z,89.10
2017-09-27T11:00:14.766Z,89.70
2017-09-27T11:03:16.716Z,90.00
2017-09-27T11:06:18.870Z,90.00
2017-09-27T11:09:20.820Z,90.20
2017-09-27T11:12:22.833Z,90.10
2017-09-27T11:15:25.536Z,90.60
2017-09-27T11:18:27.794Z,90.60
2017-09-27T11:21:29.856Z,90.80
2017-09-27T11:24:32.194Z,90.80
2017-09-27T11:27:34.138Z,90.70
2017-09-27T11:30:36.091Z,90.60
2017-09-27T11:33:38.022Z,91.00
2017-09-27T11:36:40.404Z,91.00
2017-09-27T11:39:42.435Z,90.90
2017-09-27T11:42:44.813Z,91.00
2017-09-27T11:45:46.811Z,90.90
2017-09-27T11:48:50.664Z,91.00
2017-09-27T11:51:52.608Z,91.00
2017-09-27T11:54:55.052Z,90.90
2017-09-27T11:57:56.996Z,90.50
2017-09-27T12:00:59.893Z,89.50
2017-09-27T12:04:02.638Z,88.90
2017-09-27T12:07:04.982Z,88.90
2017-09-27T12:10:06.939Z,89.00
2017-09-27T12:13:09.007Z,89.50
2017-09-27T12:16:11.144Z,90.10
2017-09-27T12:19:13.576Z,90.20
2017-09-27T12:22:16.281Z,90.00
2017-09-27T12:25:18.648Z,90.00
2017-09-27T12:28:20.877Z,90.10
2017-09-27T12:31:23.266Z,90.30
2017-09-27T12:34:25.303Z,90.40
2017-09-27T12:37:27.663Z,90.20
2017-09-27T12:40:29.704Z,90.00
2017-09-27T12:43:31.965Z,90.10
2017-09-27T12:46:33.898Z,90.10
2017-09-27T12:49:36.256Z,90.00
2017-09-27T12:52:38.210Z,90.00
2017-09-27T12:55:41.320Z,89.20
2017-09-27T12:58:43.358Z,89.20
2017-09-27T13:01:45.731Z,88.90
2017-09-27T13:04:47.680Z,89.20
2017-09-27T13:07:50.046Z,88.80
2017-09-27T13:10:51.987Z,88.70
2017-09-27T13:13:54.336Z,88.30
2017-09-27T13:16:56.282Z,87.90
2017-09-27T13:19:58.646Z,86.80
2017-09-27T13:23:00.692Z,86.90
2017-09-27T13:26:02.962Z,87.00
2017-09-27T13:29:04.999Z,87.30
2017-09-27T13:32:07.387Z,88.30
2017-09-27T13:35:09.429Z,88.90
2017-09-27T13:38:11.775Z,87.10
2017-09-27T13:41:13.738Z,84.80
2017-09-27T13:44:16.107Z,84.20
2017-09-27T13:47:18.055Z,82.90
2017-09-27T13:50:20.418Z,83.40
2017-09-27T13:53:22.361Z,83.70
2017-09-27T13:56:25.466Z,85.00
2017-09-27T13:59:27.438Z,84.90
2017-09-27T14:02:29.976Z,85.50
2017-09-27T14:05:31.906Z,85.30
2017-09-27T14:08:34.191Z,85.80
2017-09-27T14:11:36.231Z,86.30
2017-09-27T14:14:38.600Z,86.90
2017-09-27T14:17:40.639Z,87.20
2017-09-27T14:20:43.013Z,87.50
2017-09-27T14:23:45.086Z,86.80
2017-09-27T14:26:47.405Z,87.00
2017-09-27T14:29:49.338Z,86.50
2017-09-27T14:32:51.860Z,87.00
2017-09-27T14:35:53.807Z,87.50
2017-09-27T14:38:56.168Z,87.40
2017-09-27T14:41:58.234Z,87.30
2017-09-27T14:45:00.592Z,87.90
2017-09-27T14:48:02.657Z,88.20
2017-09-27T14:51:04.990Z,88.70
2017-09-27T14:54:07.044Z,88.90
2017-09-27T14:57:09.468Z,88.60
2017-09-27T15:00:12.172Z,88.40
2017-09-27T15:03:14.520Z,88.40
2017-09-27T15:06:16.464Z,88.60
2017-09-27T15:09:18.810Z,88.50
2017-09-27T15:12:20.750Z,89.00
2017-09-27T15:15:23.119Z,89.30
2017-09-27T15:18:25.228Z,89.50
2017-09-27T15:21:27.584Z,89.70
2017-09-27T15:24:29.778Z,89.50
2017-09-27T15:27:32.036Z,89.30
2017-09-27T15:30:34.945Z,87.70
2017-09-27T15:33:37.993Z,87.40
2017-09-27T15:36:39.926Z,87.40
2017-09-27T15:39:42.266Z,86.10
2017-09-27T15:42:44.304Z,84.30
2017-09-27T15:45:46.658Z,83.00
2017-09-27T15:48:48.634Z,82.00
2017-09-27T15:51:50.971Z,81.40
2017-09-27T15:54:52.939Z,81.20
2017-09-27T15:57:55.226Z,82.10
2017-09-27T16:00:57.926Z,83.00
2017-09-27T16:04:00.300Z,83.00
2017-09-27T16:07:02.249Z,83.60
2017-09-27T16:10:04.602Z,84.00
2017-09-27T16:13:06.535Z,84.30
2017-09-27T16:16:09.645Z,84.40
2017-09-27T16:19:11.620Z,83.70
2017-09-27T16:22:13.949Z,82.70
2017-09-27T16:25:15.993Z,82.50
2017-09-27T16:28:19.123Z,82.80
2017-09-27T16:31:21.829Z,83.90
2017-09-27T16:34:24.184Z,83.90
2017-09-27T16:37:26.119Z,84.40
2017-09-27T16:40:28.487Z,85.10
2017-09-27T16:43:30.411Z,85.80
2017-09-27T16:46:32.797Z,86.20
2017-09-27T16:49:34.729Z,86.70
2017-09-27T16:52:37.128Z,86.70
2017-09-27T16:55:39.200Z,87.30
2017-09-27T16:58:42.326Z,88.70
2017-09-27T17:01:44.264Z,88.40
2017-09-27T17:04:46.732Z,88.90
2017-09-27T17:07:48.681Z,89.70
2017-09-27T17:10:51.037Z,90.10
2017-09-27T17:13:52.977Z,90.30
2017-09-27T17:16:55.341Z,90.50
2017-09-27T17:19:57.283Z,90.70
2017-09-27T17:22:59.655Z,90.80
2017-09-27T17:26:01.641Z,91.00
2017-09-27T17:29:03.961Z,91.10
2017-09-27T17:32:06.104Z,91.30
2017-09-27T17:35:08.495Z,91.50
2017-09-27T17:38:10.529Z,91.70
2017-09-27T17:41:12.958Z,91.80
2017-09-27T17:44:14.928Z,92.00
2017-09-27T17:47:17.407Z,92.20
2017-09-27T17:50:19.348Z,92.40
2017-09-27T17:53:22.572Z,92.50
2017-09-27T17:56:25.376Z,92.70
2017-09-27T17:59:27.741Z,92.70
2017-09-27T18:02:29.698Z,92.80
2017-09-27T18:05:32.148Z,92.90
2017-09-27T18:08:34.093Z,92.90
2017-09-27T18:11:37.487Z,93.00
2017-09-27T18:14:39.472Z,93.10
2017-09-27T18:17:41.776Z,93.20
2017-09-27T18:20:43.712Z,93.30
2017-09-27T18:23:46.101Z,93.40
2017-09-27T18:26:48.959Z,93.50
2017-09-27T18:29:51.355Z,93.50
2017-09-27T18:32:53.424Z,93.50
2017-09-27T18:35:56.544Z,93.90
2017-09-27T18:38:59.113Z,93.50
2017-09-27T18:42:01.460Z,93.60
2017-09-27T18:45:03.411Z,93.60
2017-09-27T18:48:05.773Z,93.70
2017-09-27T18:51:07.715Z,93.70
2017-09-27T18:54:10.087Z,93.80
2017-09-27T18:57:12.029Z,93.80
2017-09-27T19:00:14.369Z,93.90
2017-09-27T19:03:16.335Z,93.90
2017-09-27T19:06:19.496Z,93.90
2017-09-27T19:09:21.446Z,94.00
2017-09-27T19:12:23.809Z,94.00
2017-09-27T19:15:25.868Z,94.00
2017-09-27T19:18:28.208Z,94.00
2017-09-27T19:21:30.169Z,94.10
2017-09-27T19:24:32.430Z,94.20
2017-09-27T19:27:34.387Z,94.20
2017-09-27T19:30:36.729Z,94.30
2017-09-27T19:33:38.777Z,94.40
2017-09-27T19:36:41.051Z,94.40
2017-09-27T19:39:43.102Z,94.40
2017-09-27T19:42:45.638Z,94.40
2017-09-27T19:45:47.600Z,94.40
2017-09-27T19:48:49.953Z,94.40
2017-09-27T19:51:51.992Z,94.40
2017-09-27T19:54:54.455Z,94.40
2017-09-27T19:57:56.404Z,94.50
2017-09-27T20:00:58.768Z,94.50
2017-09-27T20:04:00.720Z,94.50
2017-09-27T20:07:03.157Z,94.50
2017-09-27T20:10:05.101Z,94.60
2017-09-27T20:13:07.577Z,94.60
2017-09-27T20:16:09.511Z,94.60
2017-09-27T20:19:11.912Z,94.50
2017-09-27T20:22:13.849Z,94.60
2017-09-27T20:25:16.183Z,94.50
2017-09-27T20:28:18.118Z,94.80
2017-09-27T20:31:20.495Z,94.50
2017-09-27T20:34:22.426Z,94.60
2017-09-27T20:37:24.777Z,94.70
2017-09-27T20:40:27.669Z,94.80
2017-09-27T20:43:30.631Z,94.80
2017-09-27T20:46:32.562Z,94.80
2017-09-27T20:49:35.690Z,94.90
2017-09-27T20:52:37.879Z,94.90
2017-09-27T20:55:41.000Z,95.00
2017-09-27T20:58:42.942Z,95.00
2017-09-27T21:01:45.363Z,95.10
2017-09-27T21:04:48.071Z,95.20
2017-09-27T21:07:50.420Z,95.10
2017-09-27T21:10:52.355Z,95.20
2017-09-27T21:13:54.742Z,95.20
2017-09-27T21:16:56.789Z,95.10
2017-09-27T21:19:59.094Z,95.20
2017-09-27T21:23:01.916Z,95.20
2017-09-27T21:26:04.271Z,95.20
2017-09-27T21:29:06.211Z,95.30
2017-09-27T21:32:08.578Z,95.30
2017-09-27T21:35:10.572Z,95.50
2017-09-27T21:38:13.694Z,95.70
2017-09-27T21:41:15.748Z,95.60
2017-09-27T21:44:18.110Z,95.20
2017-09-27T21:47:20.051Z,95.30
2017-09-27T21:50:22.411Z,95.30
2017-09-27T21:53:24.455Z,95.30
2017-09-27T21:56:26.830Z,95.30
2017-09-27T21:59:28.876Z,95.40
2017-09-27T22:02:31.219Z,95.30
2017-09-27T22:05:33.249Z,95.40
2017-09-27T22:08:36.365Z,95.50
2017-09-27T22:11:38.393Z,95.50
2017-09-27T22:14:40.764Z,95.50
2017-09-27T22:17:42.827Z,95.50
2017-09-27T22:20:45.171Z,95.60
2017-09-27T22:23:47.276Z,95.60
2017-09-27T22:26:50.400Z,95.60
2017-09-27T22:29:52.351Z,95.60
2017-09-27T22:32:54.722Z,95.70
2017-09-27T22:35:56.655Z,95.70
2017-09-27T22:38:59.832Z,95.70
2017-09-27T22:42:01.880Z,95.70
2017-09-27T22:45:04.154Z,95.70
2017-09-27T22:48:06.175Z,95.60
2017-09-27T22:51:08.504Z,95.60
2017-09-27T22:54:10.443Z,95.60
2017-09-27T22:57:12.805Z,95.70
2017-09-27T23:00:14.752Z,95.70
2017-09-27T23:03:17.115Z,95.80
2017-09-27T23:06:19.080Z,95.80
2017-09-27T23:09:21.448Z,95.80
2017-09-27T23:12:23.433Z,95.80
2017-09-27T23:15:26.562Z,96.00
2017-09-27T23:18:28.540Z,95.90
2017-09-27T23:21:31.078Z,96.00
2017-09-27T23:24:33.016Z,96.00
2017-09-27T23:27:35.384Z,96.00
2017-09-27T23:30:37.333Z,96.00
2017-09-27T23:33:39.683Z,96.10
2017-09-27T23:36:41.698Z,96.10
2017-09-27T23:39:44.087Z,96.10
2017-09-27T23:42:46.154Z,96.20
2017-09-27T23:45:49.151Z,96.20
2017-09-27T23:48:51.089Z,96.10
2017-09-27T23:51:53.405Z,96.10
2017-09-27T23:54:55.350Z,96.20
2017-09-27T23:57:57.718Z,96.20
